Time;durP1;ratioP1;P1;durP2;ratioP2;P2;SDS_P1;SDS_P2;PMS_P1;PMS_P2;Temp;Humidity;BMP_temperature;BMP_pressure;BME280_temperature;BME280_humidity;BME280_pressure;Samples;Min_cycle;Max_cycle;Signal;HPM_P1;HPM_P2
2022/04/24 00:02:05;;;;;;;14.75;5.40;;;;;;;15.43;85.79;99932.78;5051957;28;20040;-73
2022/04/24 00:04:31;;;;;;;18.15;9.77;;;;;;;15.21;86.61;99910.91;5053827;28;20021;-74
2022/04/24 00:06:57;;;;;;;16.20;5.75;;;;;;;15.45;86.81;99951.91;5053396;28;20079;-74
2022/04/24 00:09:22;;;;;;;13.20;5.38;;;;;;;15.46;86.02;99947.56;5053821;28;20017;-74
2022/04/24 00:11:49;;;;;;;14.48;5.47;;;;;;;15.34;85.99;99959.59;5053747;28;20033;-74
2022/04/24 00:14:17;;;;;;;11.00;4.65;;;;;;;15.08;85.42;99922.06;5018027;28;20079;-74
2022/04/24 00:16:43;;;;;;;12.27;6.80;;;;;;;15.11;85.76;99955.91;5053657;28;20024;-74
2022/04/24 00:19:09;;;;;;;17.90;7.20;;;;;;;14.96;86.90;99957.47;5052992;28;20064;-74
2022/04/24 00:21:34;;;;;;;10.73;6.93;;;;;;;14.97;87.40;99958.38;5053372;28;20029;-74
2022/04/24 00:24:00;;;;;;;14.50;7.38;;;;;;;15.03;86.42;99964.47;5052273;28;20430;-72
2022/04/24 00:26:26;;;;;;;14.15;7.35;;;;;;;14.90;85.75;99949.59;5052964;28;20029;-74
2022/04/24 00:28:52;;;;;;;12.98;7.28;;;;;;;14.97;85.75;99967.00;5053222;28;20040;-74
2022/04/24 00:31:17;;;;;;;14.57;7.55;;;;;;;14.80;85.95;99977.22;5053010;28;20554;-74
2022/04/24 00:33:43;;;;;;;13.73;7.70;;;;;;;14.50;87.46;99981.16;5053309;28;20434;-78
2022/04/24 00:36:08;;;;;;;13.75;7.22;;;;;;;14.56;88.11;99990.75;5052811;28;20025;-74
2022/04/24 00:38:35;;;;;;;12.55;6.72;;;;;;;14.50;87.75;99967.28;5052852;28;20036;-74
2022/04/24 00:41:01;;;;;;;10.40;7.30;;;;;;;14.53;90.28;99995.94;5052911;28;20025;-75
2022/04/24 00:43:27;;;;;;;11.60;7.50;;;;;;;14.60;90.17;99996.88;5053106;28;20064;-75
2022/04/24 00:46:00;;;;;;;13.13;8.20;;;;;;;14.62;90.85;99988.22;5052721;28;20028;-70
2022/04/24 00:48:26;;;;;;;16.58;8.10;;;;;;;14.79;86.39;99990.19;5053285;28;20108;-75
2022/04/24 00:50:52;;;;;;;15.40;7.13;;;;;;;14.81;85.58;99973.75;5052054;28;20064;-71
2022/04/24 00:53:18;;;;;;;11.38;6.85;;;;;;;14.92;85.67;100001.63;5052529;28;20064;-74
2022/04/24 00:55:44;;;;;;;14.05;7.40;;;;;;;14.85;85.32;99998.06;5052115;28;20021;-74
2022/04/24 00:58:10;;;;;;;13.00;7.65;;;;;;;14.49;85.39;99934.38;5034732;28;20451;-73
2022/04/24 01:00:38;;;;;;;16.23;7.28;;;;;;;14.79;86.72;100001.47;5052391;28;20079;-73
2022/04/24 01:03:04;;;;;;;14.70;7.60;;;;;;;14.84;82.45;99998.91;5052279;28;20033;-74
2022/04/24 01:05:29;;;;;;;12.10;6.22;;;;;;;14.71;82.01;99984.91;5016959;28;20049;-74
2022/04/24 01:07:55;;;;;;;16.23;7.50;;;;;;;14.63;83.21;100002.09;5052616;28;20029;-74
2022/04/24 01:10:20;;;;;;;10.20;6.18;;;;;;;14.40;85.66;100011.34;5051600;28;20029;-74
2022/04/24 01:12:46;;;;;;;11.77;6.50;;;;;;;14.43;84.18;100009.63;5051996;28;20056;-74
2022/04/24 01:15:11;;;;;;;12.07;6.68;;;;;;;14.46;84.11;100012.28;5052542;28;20017;-74
2022/04/24 01:17:37;;;;;;;13.20;6.78;;;;;;;14.27;84.08;100017.22;5052162;28;20025;-73
2022/04/24 01:20:03;;;;;;;12.73;6.43;;;;;;;14.15;86.08;100001.44;5051782;28;20056;-73
2022/04/24 01:22:29;;;;;;;12.82;7.20;;;;;;;14.19;85.47;100008.41;5052430;28;20037;-74
2022/04/24 01:24:54;;;;;;;11.30;6.78;;;;;;;14.17;84.49;100002.34;5052159;28;20108;-73
2022/04/24 01:27:19;;;;;;;12.85;7.55;;;;;;;14.10;85.26;100005.69;5052113;28;20025;-74
2022/04/24 01:29:45;;;;;;;13.48;6.68;;;;;;;14.04;85.49;100004.75;5051751;28;20052;-74
2022/04/24 01:32:10;;;;;;;11.80;5.93;;;;;;;14.10;84.87;100010.91;5052051;28;20457;-74
2022/04/24 01:34:36;;;;;;;13.35;7.22;;;;;;;13.96;84.11;100000.31;5052128;28;20021;-74
2022/04/24 01:37:02;;;;;;;11.82;7.22;;;;;;;13.92;85.81;99999.38;5052103;28;20380;-74
2022/04/24 01:39:27;;;;;;;14.93;6.88;;;;;;;13.94;85.92;100007.19;5051871;28;20443;-75
2022/04/24 01:41:55;;;;;;;15.65;6.45;;;;;;;13.91;85.03;99995.88;5051930;28;20040;-74
2022/04/24 01:44:21;;;;;;;13.50;6.43;;;;;;;13.91;86.09;99998.50;5049923;28;20045;-74
2022/04/24 01:46:46;;;;;;;10.68;6.25;;;;;;;13.95;86.33;99994.22;5050937;28;20065;-74
2022/04/24 01:49:12;;;;;;;10.95;6.53;;;;;;;14.10;84.65;99996.19;5050833;28;20543;-73
2022/04/24 01:51:37;;;;;;;12.75;6.20;;;;;;;13.84;85.64;99965.50;5033342;28;20029;-75
2022/04/24 01:54:03;;;;;;;14.30;7.20;;;;;;;14.07;85.16;99999.59;5051196;28;20464;-74
2022/04/24 01:56:28;;;;;;;12.90;6.28;;;;;;;14.03;85.40;100005.59;5050824;28;20024;-78
2022/04/24 01:58:53;;;;;;;12.35;6.68;;;;;;;13.99;84.92;100006.38;5051023;28;20025;-74
2022/04/24 02:01:19;;;;;;;11.35;6.97;;;;;;;13.97;84.00;99997.72;5050927;28;20025;-74
2022/04/24 02:03:44;;;;;;;11.15;7.28;;;;;;;13.85;82.99;99972.44;5050835;28;20079;-74
2022/04/24 02:06:10;;;;;;;13.55;7.72;;;;;;;13.89;84.99;100013.19;5050900;28;20082;-74
2022/04/24 02:08:36;;;;;;;14.38;8.10;;;;;;;13.56;85.79;99990.16;5050822;28;20016;-74
2022/04/24 02:11:03;;;;;;;10.50;7.38;;;;;;;13.49;84.96;100004.72;5050637;28;20553;-73
2022/04/24 02:13:29;;;;;;;12.43;6.70;;;;;;;13.52;85.22;100014.25;5049529;28;20016;-74
2022/04/24 02:15:54;;;;;;;10.50;6.57;;;;;;;13.47;85.98;100021.97;5050666;28;20361;-73
2022/04/24 02:18:20;;;;;;;10.10;7.13;;;;;;;13.41;85.34;100016.69;5049511;28;20025;-73
2022/04/24 02:20:45;;;;;;;10.60;7.40;;;;;;;13.29;83.53;99987.91;5051003;28;20052;-73
2022/04/24 02:23:11;;;;;;;10.27;6.70;;;;;;;13.40;83.15;100018.38;5050268;28;20443;-74
2022/04/24 02:25:36;;;;;;;12.15;6.88;;;;;;;13.38;84.91;100027.88;5047568;28;20116;-74
2022/04/24 02:28:02;;;;;;;11.45;6.78;;;;;;;13.39;84.41;100034.78;5050722;28;20037;-74
2022/04/24 02:30:29;;;;;;;14.63;6.85;;;;;;;13.32;84.77;100027.72;5050973;28;20040;-76
2022/04/24 02:32:57;;;;;;;9.43;7.38;;;;;;;12.93;84.03;99962.22;5049797;28;20399;-75
2022/04/24 02:35:23;;;;;;;13.57;6.50;;;;;;;13.11;84.84;100010.91;5048882;28;20028;-75
2022/04/24 02:37:49;;;;;;;11.15;7.32;;;;;;;13.15;85.57;100035.19;5050482;28;20506;-74
2022/04/24 02:40:17;;;;;;;13.75;7.32;;;;;;;13.14;85.89;100030.81;5050082;28;20029;-72
2022/04/24 02:42:42;;;;;;;10.68;7.13;;;;;;;13.08;85.84;100020.34;5032121;28;20032;-74
2022/04/24 02:45:08;;;;;;;15.25;7.30;;;;;;;13.03;86.64;100030.59;5049973;28;20033;-74
2022/04/24 02:47:38;;;;;;;14.80;7.03;;;;;;;13.01;86.66;100034.00;5049846;28;20033;-74
2022/04/24 02:50:04;;;;;;;11.27;7.47;;;;;;;13.02;85.79;100036.66;5049686;28;20071;-74
2022/04/24 02:52:30;;;;;;;12.90;6.53;;;;;;;12.89;85.53;100012.19;5049959;28;20091;-74
2022/04/24 02:54:55;;;;;;;11.38;6.57;;;;;;;13.06;84.64;100035.88;5049333;28;20028;-74
2022/04/24 02:57:21;;;;;;;11.07;6.50;;;;;;;13.06;83.85;100041.06;5049708;28;20024;-74
2022/04/24 02:59:49;;;;;;;10.57;6.60;;;;;;;12.85;84.12;100020.75;5049768;28;20021;-74
2022/04/24 03:02:15;;;;;;;13.20;6.80;;;;;;;12.97;85.69;100042.59;5049367;28;20168;-74
2022/04/24 03:04:40;;;;;;;11.65;7.47;;;;;;;13.01;84.68;100036.59;5049549;28;20020;-75
2022/04/24 03:07:06;;;;;;;12.80;7.65;;;;;;;12.73;84.09;99997.19;5049995;28;20029;-75
2022/04/24 03:09:32;;;;;;;11.20;7.40;;;;;;;13.05;84.33;100057.44;5049751;28;20112;-74
2022/04/24 03:11:58;;;;;;;12.05;6.80;;;;;;;12.95;84.20;100047.75;5049625;28;20067;-74
2022/04/24 03:14:23;;;;;;;13.88;6.90;;;;;;;12.76;84.50;100033.50;5049514;28;20060;-74
2022/04/24 03:16:49;;;;;;;10.63;6.63;;;;;;;12.77;84.27;100058.56;5049568;28;20029;-74
2022/04/24 03:19:14;;;;;;;11.25;6.95;;;;;;;12.79;84.43;100064.66;5049416;28;20053;-75
2022/04/24 03:21:40;;;;;;;13.20;6.82;;;;;;;12.88;83.38;100076.94;5049601;28;20028;-74
2022/04/24 03:24:06;;;;;;;14.60;6.65;;;;;;;12.81;84.17;100077.66;5049529;28;20032;-74
2022/04/24 03:26:32;;;;;;;10.98;6.47;;;;;;;12.60;84.94;100071.19;5048119;28;20036;-73
2022/04/24 03:28:57;;;;;;;8.68;5.93;;;;;;;12.47;85.20;100070.00;5049796;28;20083;-74
2022/04/24 03:31:24;;;;;;;11.20;6.43;;;;;;;12.44;86.18;100091.53;5030665;28;20025;-74
2022/04/24 03:33:50;;;;;;;16.55;6.68;;;;;;;12.59;85.82;100101.34;5010521;28;20100;-74
2022/04/24 03:36:16;;;;;;;11.93;6.25;;;;;;;12.59;84.26;100091.00;5031280;28;20033;-73
2022/04/24 03:38:41;;;;;;;13.32;7.10;;;;;;;12.56;85.60;100095.22;5034254;28;20528;-74
2022/04/24 03:41:09;;;;;;;17.92;6.40;;;;;;;12.51;86.04;100100.34;5034316;28;20029;-74
2022/04/24 03:43:35;;;;;;;10.10;6.28;;;;;;;12.45;86.52;100107.97;5033837;28;20080;-74
2022/04/24 03:46:00;;;;;;;13.18;6.32;;;;;;;12.42;87.36;100119.13;5034158;28;20029;-73
2022/04/24 03:48:26;;;;;;;13.43;6.55;;;;;;;12.25;87.38;100115.22;5034045;28;20367;-74
2022/04/24 03:50:51;;;;;;;10.02;6.55;;;;;;;12.22;87.65;100108.25;5033963;28;20018;-74
2022/04/24 03:53:18;;;;;;;21.15;7.38;;;;;;;12.34;87.73;100124.94;5033961;28;20488;-74
2022/04/24 03:55:45;;;;;;;8.85;5.72;;;;;;;12.28;88.66;100116.16;5033933;28;20044;-73
2022/04/24 03:58:10;;;;;;;12.60;6.80;;;;;;;12.28;88.73;100118.75;5034135;28;20026;-73
2022/04/24 04:00:36;;;;;;;10.95;6.28;;;;;;;12.22;89.67;100125.50;5033796;28;20029;-73
2022/04/24 04:03:01;;;;;;;15.25;6.35;;;;;;;11.88;92.39;100133.25;5033667;28;20029;-73
2022/04/24 04:05:27;;;;;;;15.05;6.70;;;;;;;11.68;94.08;100132.72;5033834;28;20025;-74
2022/04/24 04:07:52;;;;;;;13.77;6.72;;;;;;;11.81;94.82;100139.09;5033709;28;20041;-73
2022/04/24 04:10:18;;;;;;;11.45;5.75;;;;;;;11.60;95.09;100098.03;5034451;28;20065;-75
2022/04/24 04:12:43;;;;;;;13.38;6.20;;;;;;;11.04;98.66;100114.59;5053578;28;20463;-76
2022/04/24 04:15:09;;;;;;;13.18;6.90;;;;;;;11.20;98.55;100120.19;5053542;28;20083;-74
2022/04/24 04:17:34;;;;;;;14.50;7.63;;;;;;;11.40;98.28;100120.75;5053230;28;20482;-73
2022/04/24 04:20:00;;;;;;;16.70;7.85;;;;;;;11.43;98.75;100137.22;5053090;28;20061;-74
2022/04/24 04:22:25;;;;;;;13.80;7.07;;;;;;;11.21;100.00;100152.94;5053436;28;20040;-73
2022/04/24 04:24:52;;;;;;;12.55;7.13;;;;;;;10.78;100.00;100158.56;5053447;28;20053;-73
2022/04/24 04:27:18;;;;;;;15.02;7.72;;;;;;;10.59;100.00;100148.50;5053395;28;20454;-73
2022/04/24 04:29:44;;;;;;;13.45;7.85;;;;;;;10.45;100.00;100136.03;5035379;28;20120;-73
2022/04/24 04:32:09;;;;;;;13.30;8.50;;;;;;;10.53;100.00;100141.44;5055362;28;20039;-73
2022/04/24 04:34:34;;;;;;;16.90;9.40;;;;;;;10.58;100.00;100151.91;5053225;28;20090;-73
2022/04/24 04:37:00;;;;;;;13.43;8.07;;;;;;;10.30;100.00;100104.53;5053223;28;20112;-73
2022/04/24 04:39:26;;;;;;;14.02;8.77;;;;;;;10.62;100.00;100162.38;5053175;28;20029;-77
2022/04/24 04:41:51;;;;;;;17.33;8.63;;;;;;;10.78;100.00;100158.56;5053258;28;20361;-73
2022/04/24 04:44:17;;;;;;;14.20;8.75;;;;;;;10.76;100.00;100162.81;5052924;28;20029;-73
2022/04/24 04:46:43;;;;;;;12.45;8.48;;;;;;;11.04;100.00;100170.53;5051904;28;20384;-73
2022/04/24 04:49:08;;;;;;;15.88;8.98;;;;;;;11.10;100.00;100158.69;5051900;28;20040;-73
2022/04/24 04:51:34;;;;;;;14.20;8.77;;;;;;;11.43;100.00;100183.75;5053196;28;20033;-73
2022/04/24 04:54:00;;;;;;;13.10;8.45;;;;;;;11.58;100.00;100178.13;5052910;28;20021;-73
2022/04/24 04:56:25;;;;;;;13.05;8.45;;;;;;;11.73;100.00;100180.28;5052954;28;20760;-73
2022/04/24 04:58:51;;;;;;;14.43;8.63;;;;;;;11.90;100.00;100185.03;5052433;28;20031;-73
2022/04/24 05:01:16;;;;;;;15.88;9.48;;;;;;;11.69;100.00;100155.19;5052819;28;20396;-73
2022/04/24 05:03:41;;;;;;;15.30;9.90;;;;;;;11.93;100.00;100179.94;5052607;28;20075;-73
2022/04/24 05:06:07;;;;;;;18.88;10.15;;;;;;;11.97;100.00;100198.22;5052553;28;20029;-74
2022/04/24 05:08:33;;;;;;;15.27;9.98;;;;;;;12.14;100.00;100192.59;5052511;28;20036;-73
2022/04/24 05:10:59;;;;;;;16.40;10.25;;;;;;;12.13;100.00;100199.47;5052383;28;20028;-73
2022/04/24 05:13:25;;;;;;;19.73;10.30;;;;;;;11.90;100.00;100159.16;5052456;28;20037;-73
2022/04/24 05:15:50;;;;;;;20.58;11.05;;;;;;;12.18;100.00;100191.84;5052302;28;20389;-74
2022/04/24 05:18:16;;;;;;;14.40;10.43;;;;;;;12.19;100.00;100172.03;5052223;28;20097;-74
2022/04/24 05:20:43;;;;;;;16.15;10.43;;;;;;;12.04;100.00;100141.47;5052292;28;20041;-74
2022/04/24 05:23:08;;;;;;;16.25;10.80;;;;;;;12.20;100.00;100179.81;5052108;28;20097;-73
2022/04/24 05:25:34;;;;;;;17.88;12.40;;;;;;;12.23;100.00;100173.84;5052373;28;20112;-74
2022/04/24 05:28:03;;;;;;;16.17;11.52;;;;;;;12.36;100.00;100188.88;5051738;28;20029;-73
2022/04/24 05:30:29;;;;;;;17.40;11.68;;;;;;;12.40;100.00;100175.16;5051684;28;20071;-74
2022/04/24 05:32:55;;;;;;;17.08;11.13;;;;;;;12.60;100.00;100179.94;5051895;28;20060;-74
2022/04/24 05:35:21;;;;;;;21.02;11.75;;;;;;;12.83;100.00;100177.00;5051593;28;20025;-73
2022/04/24 05:37:47;;;;;;;14.52;11.98;;;;;;;12.98;100.00;100174.75;5051885;28;20032;-73
2022/04/24 05:40:13;;;;;;;19.60;11.07;;;;;;;13.00;100.00;100148.91;5051931;28;20041;-74
2022/04/24 05:42:55;;;;;;;15.52;10.48;;;;;;;13.36;100.00;100182.50;5033388;28;20401;-73
2022/04/24 05:45:24;;;;;;;21.20;11.38;;;;;;;13.53;100.00;100174.22;5051822;28;20021;-73
2022/04/24 05:47:51;;;;;;;18.27;11.00;;;;;;;13.68;100.00;100177.13;5051648;28;20043;-74
2022/04/24 05:50:16;;;;;;;16.88;10.95;;;;;;;13.80;100.00;100175.63;5051650;28;20267;-74
2022/04/24 05:52:45;;;;;;;18.75;10.90;;;;;;;13.84;100.00;100167.88;5051724;28;20028;-74
2022/04/24 05:55:11;;;;;;;18.92;11.63;;;;;;;13.95;100.00;100180.22;5051162;28;20500;-70
2022/04/24 05:57:37;;;;;;;18.75;12.13;;;;;;;13.89;100.00;100155.00;5051533;28;20025;-73
2022/04/24 06:00:08;;;;;;;23.10;11.77;;;;;;;13.98;100.00;100154.31;5050564;28;20033;-74
2022/04/24 06:02:33;;;;;;;19.92;11.93;;;;;;;13.91;100.00;100148.13;5031315;28;20030;-74
2022/04/24 06:04:59;;;;;;;18.65;11.40;;;;;;;13.89;100.00;100108.31;5031747;28;20027;-74
2022/04/24 06:07:24;;;;;;;19.77;11.88;;;;;;;14.15;100.00;100141.63;5050256;28;20102;-73
2022/04/24 06:09:51;;;;;;;18.05;12.35;;;;;;;14.48;100.00;100166.38;5051416;28;20043;-75
2022/04/24 06:12:17;;;;;;;16.92;11.00;;;;;;;14.45;100.00;100155.97;5050922;28;20497;-73
2022/04/24 06:14:43;;;;;;;19.33;11.40;;;;;;;14.60;100.00;100165.72;5050049;28;20049;-73
2022/04/24 06:17:08;;;;;;;17.90;13.20;;;;;;;14.72;100.00;100166.81;5050976;28;20029;-70
2022/04/24 06:19:34;;;;;;;20.38;11.65;;;;;;;14.82;99.31;100164.38;5050981;28;20084;-75
2022/04/24 06:22:00;;;;;;;17.38;11.40;;;;;;;14.94;99.78;100163.66;5050945;28;20033;-73
2022/04/24 06:24:25;;;;;;;19.80;10.77;;;;;;;15.13;99.31;100164.81;5051079;28;20056;-75
2022/04/24 06:26:51;;;;;;;15.30;10.23;;;;;;;15.17;98.94;100169.19;5033093;28;20477;-74
2022/04/24 06:29:16;;;;;;;18.48;11.13;;;;;;;15.26;99.41;100165.81;5051075;28;20033;-75
2022/04/24 06:31:42;;;;;;;20.35;10.68;;;;;;;15.33;99.41;100176.31;5033219;28;20029;-74
2022/04/24 06:34:07;;;;;;;17.48;10.68;;;;;;;15.40;98.99;100160.78;5050860;28;20029;-74
2022/04/24 06:36:33;;;;;;;24.60;11.55;;;;;;;15.28;100.00;100166.72;5050016;28;20452;-75
2022/04/24 06:39:00;;;;;;;19.92;11.07;;;;;;;15.41;99.50;100170.34;5045646;28;20029;-74
2022/04/24 06:41:26;;;;;;;13.05;10.60;;;;;;;15.31;98.72;100127.75;5043351;28;20075;-73
2022/04/24 06:43:51;;;;;;;15.15;11.48;;;;;;;15.44;99.01;100162.56;5048854;28;20032;-75
2022/04/24 06:46:18;;;;;;;20.17;9.52;;;;;;;15.52;99.46;100151.38;5050057;28;20029;-76
2022/04/24 06:48:44;;;;;;;20.27;10.18;;;;;;;15.82;97.48;100164.78;5049930;28;20017;-75
2022/04/24 06:51:09;;;;;;;14.75;10.23;;;;;;;16.00;95.79;100153.69;5049524;28;20028;-74
2022/04/24 06:53:38;;;;;;;24.70;11.15;;;;;;;15.82;95.68;100164.78;5049837;28;20052;-73
2022/04/24 06:56:04;;;;;;;19.52;10.73;;;;;;;15.77;98.08;100162.06;5049611;28;20484;-73
2022/04/24 06:58:29;;;;;;;22.10;11.35;;;;;;;15.76;96.85;100142.09;5048302;28;20112;-74
2022/04/24 07:00:55;;;;;;;18.77;10.73;;;;;;;16.09;95.14;100158.97;5049291;28;20108;-72
2022/04/24 07:03:22;;;;;;;19.25;9.60;;;;;;;16.35;96.26;100160.94;5049717;28;20098;-74
2022/04/24 07:05:49;;;;;;;25.08;10.70;;;;;;;16.64;94.68;100161.13;5050008;28;20029;-74
2022/04/24 07:08:14;;;;;;;18.25;9.80;;;;;;;16.79;92.20;100157.75;5050507;28;20067;-73
2022/04/24 07:10:40;;;;;;;22.95;9.57;;;;;;;16.94;93.32;100161.38;5049858;28;20048;-75
2022/04/24 07:13:06;;;;;;;23.83;9.80;;;;;;;17.04;91.14;100163.16;5049562;28;20062;-73
2022/04/24 07:15:34;;;;;;;23.77;9.57;;;;;;;17.18;90.06;100144.97;5049407;28;20024;-73
2022/04/24 07:18:00;;;;;;;18.13;8.40;;;;;;;16.97;86.53;100110.13;5049113;28;20036;-74
2022/04/24 07:20:27;;;;;;;29.30;9.05;;;;;;;17.48;84.64;100163.38;5049778;28;20049;-74
2022/04/24 07:23:00;;;;;;;22.42;8.40;;;;;;;17.61;84.34;100158.19;5047120;28;20051;-74
2022/04/24 07:25:26;;;;;;;18.23;7.32;;;;;;;17.55;82.43;100160.78;5049768;28;20030;-75
2022/04/24 07:27:53;;;;;;;24.90;8.82;;;;;;;17.61;83.55;100166.03;5049302;28;20017;-74
2022/04/24 07:30:20;;;;;;;27.23;8.57;;;;;;;17.86;82.21;100158.25;5049431;28;20480;-73
2022/04/24 07:32:53;;;;;;;27.02;7.80;;;;;;;17.98;83.58;100154.84;5049629;28;20082;-75
2022/04/24 07:35:20;;;;;;;21.77;7.55;;;;;;;17.99;83.17;100134.81;5043410;28;20029;-75
2022/04/24 07:37:46;;;;;;;17.50;7.50;;;;;;;18.24;79.87;100161.81;5046590;28;20412;-75
2022/04/24 07:40:14;;;;;;;19.40;6.80;;;;;;;18.43;79.83;100158.34;5045383;28;20447;-75
2022/04/24 07:42:56;;;;;;;19.90;6.90;;;;;;;18.53;78.48;100153.97;5043282;28;20064;-73
2022/04/24 07:45:32;;;;;;;16.50;5.57;;;;;;;18.64;78.68;100156.59;5048328;28;20032;-75
2022/04/24 07:47:58;;;;;;;24.58;7.55;;;;;;;18.72;78.31;100153.97;5045449;28;20048;-74
2022/04/24 07:50:26;;;;;;;19.83;6.72;;;;;;;18.80;77.70;100154.78;5046194;28;20481;-75
2022/04/24 07:52:52;;;;;;;21.20;7.20;;;;;;;18.78;77.97;100155.66;5045191;28;20024;-74
2022/04/24 07:55:22;;;;;;;19.60;7.32;;;;;;;18.74;75.63;100131.28;5042576;28;20415;-75
2022/04/24 07:57:48;;;;;;;24.50;7.63;;;;;;;19.07;74.06;100161.75;5044728;28;20040;-74
2022/04/24 08:00:15;;;;;;;23.10;6.60;;;;;;;19.22;74.64;100154.72;5047072;28;20051;-74
2022/04/24 08:02:49;;;;;;;19.00;6.60;;;;;;;19.21;75.72;100158.22;5044069;28;20087;-74
2022/04/24 08:05:19;;;;;;;17.60;5.78;;;;;;;19.27;76.43;100166.03;5045032;28;20496;-74
2022/04/24 08:07:45;;;;;;;16.33;5.88;;;;;;;19.46;74.88;100152.88;5046036;28;20053;-75
2022/04/24 08:10:10;;;;;;;19.48;6.07;;;;;;;19.41;72.89;100131.94;5047456;28;20538;-74
2022/04/24 08:12:36;;;;;;;16.45;5.57;;;;;;;19.56;72.65;100144.97;5046694;28;20485;-75
2022/04/24 08:15:02;;;;;;;22.20;7.07;;;;;;;19.51;71.38;100120.53;5048867;28;20025;-73
2022/04/24 08:17:27;;;;;;;19.95;6.63;;;;;;;19.77;71.23;100147.47;5048673;28;20021;-75
2022/04/24 08:19:53;;;;;;;19.48;5.93;;;;;;;19.82;70.55;100137.84;5048091;28;20416;-75
2022/04/24 08:22:19;;;;;;;20.00;5.72;;;;;;;19.77;71.21;100100.34;5051121;28;20033;-75
2022/04/24 08:24:44;;;;;;;20.05;6.55;;;;;;;20.01;70.10;100130.75;5053687;28;20024;-75
2022/04/24 08:27:10;;;;;;;17.13;5.28;;;;;;;20.07;68.54;100135.94;5048795;28;20108;-75
2022/04/24 08:29:35;;;;;;;15.80;5.63;;;;;;;20.14;68.85;100129.78;5029976;28;20036;-75
2022/04/24 08:32:00;;;;;;;17.13;5.93;;;;;;;20.28;70.10;100127.03;5052038;28;20124;-74
2022/04/24 08:34:26;;;;;;;15.02;5.28;;;;;;;20.40;69.61;100128.69;5052288;28;20031;-75
2022/04/24 08:36:51;;;;;;;16.67;5.53;;;;;;;20.53;70.73;100117.19;5052503;28;20013;-76
2022/04/24 08:39:17;;;;;;;17.80;5.57;;;;;;;20.53;67.72;100114.56;5047284;28;20033;-74
2022/04/24 08:41:43;;;;;;;13.68;5.28;;;;;;;20.57;67.76;100110.16;5052067;28;20120;-75
2022/04/24 08:44:09;;;;;;;17.63;5.20;;;;;;;20.68;66.64;100105.66;5052089;28;21067;-75
2022/04/24 08:46:35;;;;;;;15.80;5.35;;;;;;;20.83;66.85;100106.44;5051661;28;20037;-74
2022/04/24 08:49:02;;;;;;;14.98;5.15;;;;;;;20.95;66.05;100102.81;5052052;28;20450;-74
2022/04/24 08:51:28;;;;;;;16.95;4.72;;;;;;;21.15;64.04;100095.56;5048243;28;20060;-75
2022/04/24 08:53:54;;;;;;;12.50;4.30;;;;;;;21.06;64.85;100063.31;5047911;28;20068;-74
2022/04/24 08:56:20;;;;;;;14.02;4.53;;;;;;;21.34;62.68;100090.91;5052255;28;20025;-75
2022/04/24 08:58:45;;;;;;;12.75;3.88;;;;;;;21.47;65.35;100096.00;5052145;28;20031;-75
2022/04/24 09:01:11;;;;;;;12.52;4.63;;;;;;;21.47;62.65;100059.22;5052146;28;20447;-75
2022/04/24 09:03:36;;;;;;;15.63;4.97;;;;;;;21.72;62.64;100083.44;5048220;28;20588;-74
2022/04/24 09:06:02;;;;;;;15.23;4.78;;;;;;;21.82;61.92;100084.16;5047775;28;20457;-75
2022/04/24 09:08:27;;;;;;;13.43;4.50;;;;;;;21.88;62.49;100076.19;5051540;28;20040;-75
2022/04/24 09:10:55;;;;;;;13.85;3.90;;;;;;;21.95;64.40;100075.16;5051876;28;20035;-74
2022/04/24 09:13:27;;;;;;;10.23;4.32;;;;;;;21.95;62.37;100069.06;5051669;28;20029;-75
2022/04/24 09:16:02;;;;;;;14.63;4.15;;;;;;;21.71;62.77;100016.00;5048949;28;20044;-74
2022/04/24 09:18:39;;;;;;;16.58;4.75;;;;;;;22.12;65.48;100060.91;5050146;28;20036;-74
2022/04/24 09:21:04;;;;;;;41.80;7.07;;;;;;;22.27;64.49;100052.72;5051254;28;20177;-73
2022/04/24 09:23:34;;;;;;;12.93;4.82;;;;;;;22.40;63.20;100063.91;5048603;28;20480;-75
2022/04/24 09:25:59;;;;;;;13.10;4.70;;;;;;;22.44;64.39;100041.94;5047061;28;20029;-75
2022/04/24 09:28:35;;;;;;;12.10;3.90;;;;;;;22.61;64.07;100035.47;5051045;28;20039;-75
2022/04/24 09:31:04;;;;;;;13.45;4.32;;;;;;;22.74;62.06;100044.88;5052067;28;20025;-75
2022/04/24 09:33:56;;;;;;;14.55;4.72;;;;;;;22.91;56.73;100043.63;5048415;28;20054;-77
2022/04/24 09:36:24;;;;;;;7.53;3.40;;;;;;;23.07;52.46;100034.50;4989384;28;20582;-75
2022/04/24 09:38:50;;;;;;;17.67;4.13;;;;;;;23.22;52.50;100027.22;4966872;28;20483;-77
2022/04/24 09:41:17;;;;;;;11.95;3.70;;;;;;;23.41;54.37;100030.28;4968540;28;20294;-75
2022/04/24 09:43:42;;;;;;;14.32;3.50;;;;;;;23.38;54.58;100028.59;4975680;28;20035;-76
2022/04/24 09:46:08;;;;;;;15.65;3.80;;;;;;;23.31;53.86;100018.25;4988594;28;20117;-75
2022/04/24 09:48:34;;;;;;;15.50;3.85;;;;;;;23.50;52.77;100018.66;4977569;28;20077;-75
2022/04/24 09:50:59;;;;;;;12.27;4.18;;;;;;;23.52;51.33;99996.66;4989578;28;20067;-75
2022/04/24 09:53:27;;;;;;;12.40;3.72;;;;;;;23.58;54.94;100003.56;4988915;28;20045;-74
2022/04/24 09:55:54;;;;;;;7.70;3.28;;;;;;;23.56;54.49;100007.97;4989856;28;20042;-75
2022/04/24 09:58:22;;;;;;;13.52;3.45;;;;;;;23.81;53.88;100015.28;4989776;28;20030;-74
2022/04/24 10:00:50;;;;;;;20.65;4.13;;;;;;;23.84;51.69;100002.91;4985889;28;20112;-75
2022/04/24 10:03:18;;;;;;;9.77;3.00;;;;;;;23.89;51.37;100005.44;4969765;28;20041;-74
2022/04/24 10:05:47;;;;;;;12.48;3.15;;;;;;;23.89;53.14;100005.44;4974453;28;20042;-75
2022/04/24 10:08:13;;;;;;;20.05;4.03;;;;;;;23.97;52.93;99997.34;4988580;28;20399;-75
2022/04/24 10:10:39;;;;;;;10.20;3.05;;;;;;;24.17;54.31;100010.84;4956044;28;20053;-74
2022/04/24 10:13:07;;;;;;;14.82;3.58;;;;;;;24.41;50.63;99997.91;5017303;28;20041;-74
2022/04/24 10:15:35;;;;;;;12.85;3.50;;;;;;;24.63;52.50;99997.31;5049688;28;20085;-74
2022/04/24 10:18:30;;;;;;;9.90;3.10;;;;;;;24.60;51.55;100000.91;5050064;28;20037;-74
2022/04/24 10:21:24;;;;;;;7.35;2.80;;;;;;;24.50;56.97;99999.41;4988080;28;20188;-74
2022/04/24 10:23:50;;;;;;;13.20;3.72;;;;;;;24.67;52.87;99999.84;4971539;28;20030;-76
2022/04/24 10:26:20;;;;;;;12.98;3.50;;;;;;;24.54;51.77;99966.75;4988077;28;20045;-76
2022/04/24 10:28:47;;;;;;;14.48;3.85;;;;;;;24.66;50.28;99977.00;5001615;28;20042;-75
2022/04/24 10:31:14;;;;;;;10.88;3.78;;;;;;;24.89;50.33;99988.66;4987118;28;20144;-75
2022/04/24 10:33:51;;;;;;;9.38;3.00;;;;;;;24.77;53.31;99975.81;4985588;28;20035;-75
2022/04/24 10:36:17;;;;;;;9.63;2.85;;;;;;;24.71;52.93;99984.75;4988336;28;20030;-75
2022/04/24 10:38:50;;;;;;;13.18;3.60;;;;;;;24.96;48.76;99979.63;4986999;28;20174;-75
2022/04/24 10:41:18;;;;;;;12.50;3.40;;;;;;;25.10;47.11;99962.50;5007297;28;20087;-75
2022/04/24 10:43:56;;;;;;;11.55;3.20;;;;;;;25.09;49.79;99969.53;4997140;28;20113;-74
2022/04/24 10:46:31;;;;;;;8.85;3.00;;;;;;;25.09;45.84;99969.53;4988181;28;20060;-74
2022/04/24 10:49:08;;;;;;;10.32;2.70;;;;;;;25.17;49.50;99961.38;4987502;28;20544;-73
2022/04/24 10:51:36;;;;;;;7.50;2.90;;;;;;;24.67;47.99;99965.53;4987482;28;20100;-73
2022/04/24 10:54:08;;;;;;;6.72;2.63;;;;;;;24.28;48.39;99933.22;4987835;28;20031;-73
2022/04/24 10:56:35;;;;;;;11.70;3.40;;;;;;;24.55;49.77;99944.75;4987793;28;20034;-73
2022/04/24 10:59:08;;;;;;;11.77;2.80;;;;;;;24.91;49.20;99949.88;5046753;28;20428;-73
2022/04/24 11:01:35;;;;;;;11.77;2.92;;;;;;;24.60;49.00;99940.19;5049010;28;20021;-73
2022/04/24 11:04:06;;;;;;;7.88;2.88;;;;;;;24.59;49.94;99958.72;5046711;28;20071;-73
2022/04/24 11:06:31;;;;;;;9.30;2.58;;;;;;;24.47;48.65;99954.66;5048425;28;20040;-73
2022/04/24 11:09:09;;;;;;;8.48;2.70;;;;;;;24.50;49.92;99951.91;5050094;28;20028;-74
2022/04/24 11:12:04;;;;;;;8.88;3.15;;;;;;;24.66;47.81;99947.97;5048543;28;20103;-76
2022/04/24 11:14:30;;;;;;;16.65;3.85;;;;;;;24.75;49.75;99923.06;5048919;28;20107;-75
2022/04/24 11:16:59;;;;;;;11.50;3.00;;;;;;;25.11;45.26;99948.34;5047664;28;20511;-73